sensor_id;sensor_type;location;lat;lon;timestamp;pressure;altitude;pressure_sealevel;temperature;humidity
53262;BME280;39658;51.090;-1.786;2023-05-21T00:01:12;102619.31;;;8.01;100.00
53262;BME280;39658;51.090;-1.786;2023-05-21T00:03:40;102614.09;;;8.00;100.00
53262;BME280;39658;51.090;-1.786;2023-05-21T00:06:08;102604.56;;;7.97;100.00
53262;BME280;39658;51.090;-1.786;2023-05-21T00:08:35;102606.31;;;7.97;100.00
53262;BME280;39658;51.090;-1.786;2023-05-21T00:11:02;102605.53;;;7.93;100.00
53262;BME280;39658;51.090;-1.786;2023-05-21T00:13:28;102602.22;;;7.85;100.00
53262;BME280;39658;51.090;-1.786;2023-05-21T00:15:55;102600.56;;;7.81;100.00
53262;BME280;39658;51.090;-1.786;2023-05-21T00:18:22;102586.78;;;7.72;100.00
53262;BME280;39658;51.090;-1.786;2023-05-21T00:20:50;102579.84;;;7.68;100.00
53262;BME280;39658;51.090;-1.786;2023-05-21T00:23:18;102570.31;;;7.64;100.00
53262;BME280;39658;51.090;-1.786;2023-05-21T00:25:45;102574.00;;;7.57;100.00
53262;BME280;39658;51.090;-1.786;2023-05-21T00:28:12;102556.66;;;7.50;100.00
53262;BME280;39658;51.090;-1.786;2023-05-21T00:30:39;102553.34;;;7.43;100.00
53262;BME280;39658;51.090;-1.786;2023-05-21T00:33:07;102537.69;;;7.39;100.00
53262;BME280;39658;51.090;-1.786;2023-05-21T00:35:34;102519.47;;;7.32;100.00
53262;BME280;39658;51.090;-1.786;2023-05-21T00:38:01;102508.25;;;7.27;100.00
53262;BME280;39658;51.090;-1.786;2023-05-21T00:40:29;102505.75;;;7.21;100.00
53262;BME280;39658;51.090;-1.786;2023-05-21T00:42:56;102498.84;;;7.17;100.00
53262;BME280;39658;51.090;-1.786;2023-05-21T00:45:23;102489.38;;;7.10;100.00
53262;BME280;39658;51.090;-1.786;2023-05-21T00:47:50;102475.56;;;7.03;100.00
53262;BME280;39658;51.090;-1.786;2023-05-21T00:50:19;102457.19;;;7.03;100.00
53262;BME280;39658;51.090;-1.786;2023-05-21T00:52:46;102458.03;;;7.04;100.00
53262;BME280;39658;51.090;-1.786;2023-05-21T00:55:13;102459.78;;;7.05;100.00
53262;BME280;39658;51.090;-1.786;2023-05-21T00:57:41;102451.91;;;7.05;100.00
53262;BME280;39658;51.090;-1.786;2023-05-21T01:00:09;102447.47;;;7.07;100.00
53262;BME280;39658;51.090;-1.786;2023-05-21T01:02:36;102430.75;;;7.12;100.00
53262;BME280;39658;51.090;-1.786;2023-05-21T01:05:04;102435.00;;;7.18;100.00
53262;BME280;39658;51.090;-1.786;2023-05-21T01:07:31;102422.72;;;7.18;100.00
53262;BME280;39658;51.090;-1.786;2023-05-21T01:10:01;102417.38;;;7.23;100.00
53262;BME280;39658;51.090;-1.786;2023-05-21T01:12:30;102412.97;;;7.24;100.00
53262;BME280;39658;51.090;-1.786;2023-05-21T01:14:59;102407.78;;;7.22;100.00
53262;BME280;39658;51.090;-1.786;2023-05-21T01:17:27;102408.72;;;7.19;100.00
53262;BME280;39658;51.090;-1.786;2023-05-21T01:19:56;102392.00;;;7.24;100.00
53262;BME280;39658;51.090;-1.786;2023-05-21T01:22:24;102377.16;;;7.23;100.00
53262;BME280;39658;51.090;-1.786;2023-05-21T01:24:53;102363.16;;;7.22;100.00
53262;BME280;39658;51.090;-1.786;2023-05-21T01:27:20;102359.69;;;7.22;100.00
53262;BME280;39658;51.090;-1.786;2023-05-21T01:29:47;102364.97;;;7.20;100.00
53262;BME280;39658;51.090;-1.786;2023-05-21T01:32:19;102352.03;;;7.14;100.00
53262;BME280;39658;51.090;-1.786;2023-05-21T01:34:53;102345.16;;;7.08;100.00
53262;BME280;39658;51.090;-1.786;2023-05-21T01:37:28;102335.63;;;7.06;100.00
53262;BME280;39658;51.090;-1.786;2023-05-21T01:40:01;102319.97;;;7.03;100.00
53262;BME280;39658;51.090;-1.786;2023-05-21T01:42:32;102320.81;;;7.03;100.00
53262;BME280;39658;51.090;-1.786;2023-05-21T01:45:01;102310.41;;;7.00;100.00
53262;BME280;39658;51.090;-1.786;2023-05-21T01:47:31;102313.03;;;7.00;100.00
53262;BME280;39658;51.090;-1.786;2023-05-21T01:49:58;102313.06;;;6.98;100.00
53262;BME280;39658;51.090;-1.786;2023-05-21T01:52:26;102299.97;;;6.98;100.00
53262;BME280;39658;51.090;-1.786;2023-05-21T01:54:52;102293.03;;;6.96;100.00
53262;BME280;39658;51.090;-1.786;2023-05-21T01:57:21;102285.28;;;6.91;100.00
53262;BME280;39658;51.090;-1.786;2023-05-21T01:59:48;102293.25;;;6.87;100.00
53262;BME280;39658;51.090;-1.786;2023-05-21T02:02:15;102283.81;;;6.81;100.00
53262;BME280;39658;51.090;-1.786;2023-05-21T02:04:41;102272.44;;;6.80;100.00
53262;BME280;39658;51.090;-1.786;2023-05-21T02:07:08;102262.03;;;6.77;100.00
53262;BME280;39658;51.090;-1.786;2023-05-21T02:09:35;102249.84;;;6.76;100.00
53262;BME280;39658;51.090;-1.786;2023-05-21T02:12:02;102252.53;;;6.73;100.00
53262;BME280;39658;51.090;-1.786;2023-05-21T02:14:30;102242.22;;;6.67;100.00
53262;BME280;39658;51.090;-1.786;2023-05-21T02:16:58;102229.28;;;6.59;100.00
53262;BME280;39658;51.090;-1.786;2023-05-21T02:19:26;102211.13;;;6.52;100.00
53262;BME280;39658;51.090;-1.786;2023-05-21T02:21:52;102190.53;;;6.38;100.00
53262;BME280;39658;51.090;-1.786;2023-05-21T02:24:20;102174.25;;;6.25;100.00
53262;BME280;39658;51.090;-1.786;2023-05-21T02:26:48;102172.59;;;6.21;100.00
53262;BME280;39658;51.090;-1.786;2023-05-21T02:29:16;102161.44;;;6.14;100.00
53262;BME280;39658;51.090;-1.786;2023-05-21T02:31:44;102144.16;;;6.05;100.00
53262;BME280;39658;51.090;-1.786;2023-05-21T02:34:11;102123.34;;;6.01;100.00
53262;BME280;39658;51.090;-1.786;2023-05-21T02:36:38;102108.53;;;6.00;100.00
53262;BME280;39658;51.090;-1.786;2023-05-21T02:39:05;102099.81;;;5.99;100.00
53262;BME280;39658;51.090;-1.786;2023-05-21T02:41:32;102088.53;;;5.97;100.00
53262;BME280;39658;51.090;-1.786;2023-05-21T02:43:59;102078.88;;;5.99;100.00
53262;BME280;39658;51.090;-1.786;2023-05-21T02:46:26;102069.31;;;5.98;100.00
53262;BME280;39658;51.090;-1.786;2023-05-21T02:48:54;102062.34;;;5.97;100.00
53262;BME280;39658;51.090;-1.786;2023-05-21T02:51:20;102055.41;;;5.93;100.00
53262;BME280;39658;51.090;-1.786;2023-05-21T02:53:47;102048.59;;;5.87;100.00
53262;BME280;39658;51.090;-1.786;2023-05-21T02:56:14;102039.91;;;5.85;100.00
53262;BME280;39658;51.090;-1.786;2023-05-21T02:58:41;102034.75;;;5.82;100.00
53262;BME280;39658;51.090;-1.786;2023-05-21T03:01:07;102029.56;;;5.81;100.00
53262;BME280;39658;51.090;-1.786;2023-05-21T03:03:34;102027.94;;;5.77;100.00
53262;BME280;39658;51.090;-1.786;2023-05-21T03:06:02;102018.34;;;5.75;100.00
53262;BME280;39658;51.090;-1.786;2023-05-21T03:08:29;102012.28;;;5.75;100.00
53262;BME280;39658;51.090;-1.786;2023-05-21T03:10:56;102003.53;;;5.74;100.00
53262;BME280;39658;51.090;-1.786;2023-05-21T03:13:23;101994.88;;;5.72;100.00
53262;BME280;39658;51.090;-1.786;2023-05-21T03:15:50;101998.38;;;5.71;100.00
53262;BME280;39658;51.090;-1.786;2023-05-21T03:18:20;101990.56;;;5.70;100.00
53262;BME280;39658;51.090;-1.786;2023-05-21T03:20:47;101988.69;;;5.77;100.00
53262;BME280;39658;51.090;-1.786;2023-05-21T03:23:15;101985.88;;;5.84;100.00
53262;BME280;39658;51.090;-1.786;2023-05-21T03:25:42;101987.59;;;5.84;100.00
53262;BME280;39658;51.090;-1.786;2023-05-21T03:28:10;102000.56;;;5.88;100.00
53262;BME280;39658;51.090;-1.786;2023-05-21T03:30:37;101991.91;;;5.86;100.00
53262;BME280;39658;51.090;-1.786;2023-05-21T03:33:03;101999.81;;;5.85;100.00
53262;BME280;39658;51.090;-1.786;2023-05-21T03:35:30;101995.34;;;5.88;100.00
53262;BME280;39658;51.090;-1.786;2023-05-21T03:37:57;101995.34;;;5.88;100.00
53262;BME280;39658;51.090;-1.786;2023-05-21T03:40:25;101999.56;;;5.94;100.00
53262;BME280;39658;51.090;-1.786;2023-05-21T03:42:52;102006.47;;;5.98;100.00
53262;BME280;39658;51.090;-1.786;2023-05-21T03:45:19;101993.31;;;6.01;100.00
53262;BME280;39658;51.090;-1.786;2023-05-21T03:47:45;102005.47;;;6.02;100.00
53262;BME280;39658;51.090;-1.786;2023-05-21T03:50:13;102002.91;;;6.01;100.00
53262;BME280;39658;51.090;-1.786;2023-05-21T03:52:41;102010.72;;;6.02;100.00
53262;BME280;39658;51.090;-1.786;2023-05-21T03:55:08;102018.69;;;5.98;100.00
53262;BME280;39658;51.090;-1.786;2023-05-21T03:57:36;102016.13;;;5.94;100.00
53262;BME280;39658;51.090;-1.786;2023-05-21T04:00:04;102023.09;;;5.96;100.00
53262;BME280;39658;51.090;-1.786;2023-05-21T04:02:33;102032.75;;;5.93;100.00
53262;BME280;39658;51.090;-1.786;2023-05-21T04:05:00;102029.41;;;5.87;100.00
53262;BME280;39658;51.090;-1.786;2023-05-21T04:07:27;102033.06;;;5.81;100.00
53262;BME280;39658;51.090;-1.786;2023-05-21T04:09:54;102038.44;;;5.75;100.00
53262;BME280;39658;51.090;-1.786;2023-05-21T04:12:21;102036.84;;;5.68;100.00
53262;BME280;39658;51.090;-1.786;2023-05-21T04:14:49;102043.84;;;5.67;100.00
53262;BME280;39658;51.090;-1.786;2023-05-21T04:17:16;102041.31;;;5.64;100.00
53262;BME280;39658;51.090;-1.786;2023-05-21T04:19:43;102040.50;;;5.61;100.00
53262;BME280;39658;51.090;-1.786;2023-05-21T04:22:10;102033.53;;;5.61;100.00
53262;BME280;39658;51.090;-1.786;2023-05-21T04:24:36;102035.28;;;5.61;100.00
53262;BME280;39658;51.090;-1.786;2023-05-21T04:27:05;102025.84;;;5.55;100.00
53262;BME280;39658;51.090;-1.786;2023-05-21T04:29:34;102031.97;;;5.54;100.00
53262;BME280;39658;51.090;-1.786;2023-05-21T04:32:03;102033.84;;;5.49;100.00
53262;BME280;39658;51.090;-1.786;2023-05-21T04:34:30;102041.69;;;5.49;100.00
53262;BME280;39658;51.090;-1.786;2023-05-21T04:36:58;102034.66;;;5.51;100.00
53262;BME280;39658;51.090;-1.786;2023-05-21T04:39:26;102036.38;;;5.52;100.00
53262;BME280;39658;51.090;-1.786;2023-05-21T04:41:55;102030.13;;;5.57;100.00
53262;BME280;39658;51.090;-1.786;2023-05-21T04:44:22;102030.06;;;5.59;100.00
53262;BME280;39658;51.090;-1.786;2023-05-21T04:46:49;102028.34;;;5.60;100.00
53262;BME280;39658;51.090;-1.786;2023-05-21T04:49:18;102035.28;;;5.61;100.00
53262;BME280;39658;51.090;-1.786;2023-05-21T04:51:45;102032.69;;;5.59;100.00
53262;BME280;39658;51.090;-1.786;2023-05-21T04:54:13;102026.53;;;5.62;100.00
53262;BME280;39658;51.090;-1.786;2023-05-21T04:56:40;102029.03;;;5.66;100.00
53262;BME280;39658;51.090;-1.786;2023-05-21T04:59:07;102023.63;;;5.74;100.00
53262;BME280;39658;51.090;-1.786;2023-05-21T05:01:34;102024.31;;;5.81;100.00
53262;BME280;39658;51.090;-1.786;2023-05-21T05:04:03;102027.66;;;5.87;100.00
53262;BME280;39658;51.090;-1.786;2023-05-21T05:06:31;102027.50;;;5.93;100.00
53262;BME280;39658;51.090;-1.786;2023-05-21T05:08:57;102037.81;;;6.01;100.00
53262;BME280;39658;51.090;-1.786;2023-05-21T05:11:24;102040.31;;;6.04;100.00
53262;BME280;39658;51.090;-1.786;2023-05-21T05:13:51;102042.81;;;6.09;100.00
53262;BME280;39658;51.090;-1.786;2023-05-21T05:16:18;102054.78;;;6.19;100.00
53262;BME280;39658;51.090;-1.786;2023-05-21T05:18:49;102055.47;;;6.26;100.00
53262;BME280;39658;51.090;-1.786;2023-05-21T05:21:17;102044.84;;;6.32;100.00
53262;BME280;39658;51.090;-1.786;2023-05-21T05:23:45;102057.69;;;6.41;100.00
53262;BME280;39658;51.090;-1.786;2023-05-21T05:26:12;102057.47;;;6.49;100.00
53262;BME280;39658;51.090;-1.786;2023-05-21T05:28:39;102060.69;;;6.60;100.00
53262;BME280;39658;51.090;-1.786;2023-05-21T05:31:05;102062.09;;;6.72;100.00
53262;BME280;39658;51.090;-1.786;2023-05-21T05:33:32;102060.88;;;6.84;100.00
53262;BME280;39658;51.090;-1.786;2023-05-21T05:35:59;102070.94;;;6.99;100.00
53262;BME280;39658;51.090;-1.786;2023-05-21T05:38:26;102081.00;;;7.13;100.00
53262;BME280;39658;51.090;-1.786;2023-05-21T05:40:54;102071.91;;;7.25;100.00
53262;BME280;39658;51.090;-1.786;2023-05-21T05:43:21;102081.22;;;7.35;100.00
53262;BME280;39658;51.090;-1.786;2023-05-21T05:45:47;102090.47;;;7.47;100.00
53262;BME280;39658;51.090;-1.786;2023-05-21T05:48:14;102097.03;;;7.61;100.00
53262;BME280;39658;51.090;-1.786;2023-05-21T05:50:42;102115.94;;;7.72;100.00
53262;BME280;39658;51.090;-1.786;2023-05-21T05:53:08;102126.97;;;7.83;100.00
53262;BME280;39658;51.090;-1.786;2023-05-21T05:55:37;102126.53;;;7.97;100.00
53262;BME280;39658;51.090;-1.786;2023-05-21T05:58:06;102140.16;;;8.08;100.00
53262;BME280;39658;51.090;-1.786;2023-05-21T06:00:32;102161.56;;;8.23;100.00
53262;BME280;39658;51.090;-1.786;2023-05-21T06:02:59;102180.38;;;8.37;100.00
53262;BME280;39658;51.090;-1.786;2023-05-21T06:05:26;102202.63;;;8.54;100.00
53262;BME280;39658;51.090;-1.786;2023-05-21T06:07:52;102203.69;;;8.75;100.00
53262;BME280;39658;51.090;-1.786;2023-05-21T06:10:19;102219.63;;;8.95;100.00
53262;BME280;39658;51.090;-1.786;2023-05-21T06:12:46;102263.59;;;9.17;100.00
53262;BME280;39658;51.090;-1.786;2023-05-21T06:15:14;102304.44;;;9.27;100.00
53262;BME280;39658;51.090;-1.786;2023-05-21T06:17:43;102349.75;;;9.37;100.00
53262;BME280;39658;51.090;-1.786;2023-05-21T06:20:10;102395.72;;;9.52;100.00
53262;BME280;39658;51.090;-1.786;2023-05-21T06:22:37;102429.53;;;9.64;100.00
53262;BME280;39658;51.090;-1.786;2023-05-21T06:25:05;102459.72;;;9.81;100.00
53262;BME280;39658;51.090;-1.786;2023-05-21T06:27:32;102488.22;;;9.95;100.00
53262;BME280;39658;51.090;-1.786;2023-05-21T06:29:59;102516.88;;;10.04;100.00
53262;BME280;39658;51.090;-1.786;2023-05-21T06:32:27;102539.19;;;10.19;100.00
53262;BME280;39658;51.090;-1.786;2023-05-21T06:34:54;102559.84;;;10.31;100.00
53262;BME280;39658;51.090;-1.786;2023-05-21T06:37:20;102551.56;;;10.42;100.00
53262;BME280;39658;51.090;-1.786;2023-05-21T06:39:47;102575.72;;;10.55;100.00
53262;BME280;39658;51.090;-1.786;2023-05-21T06:42:14;102610.56;;;10.65;100.00
53262;BME280;39658;51.090;-1.786;2023-05-21T06:44:41;102620.50;;;10.82;100.00
53262;BME280;39658;51.090;-1.786;2023-05-21T06:47:08;102630.59;;;10.94;100.00
53262;BME280;39658;51.090;-1.786;2023-05-21T06:49:36;102630.03;;;11.09;100.00
53262;BME280;39658;51.090;-1.786;2023-05-21T06:52:03;102632.22;;;11.22;100.00
53262;BME280;39658;51.090;-1.786;2023-05-21T06:54:30;102637.16;;;11.29;100.00
53262;BME280;39658;51.090;-1.786;2023-05-21T06:56:56;102639.28;;;11.43;100.00
53262;BME280;39658;51.090;-1.786;2023-05-21T06:59:23;102636.97;;;11.58;100.00
53262;BME280;39658;51.090;-1.786;2023-05-21T07:01:50;102635.41;;;11.74;100.00
53262;BME280;39658;51.090;-1.786;2023-05-21T07:04:17;102654.25;;;11.89;100.00
53262;BME280;39658;51.090;-1.786;2023-05-21T07:06:45;102644.91;;;12.02;100.00
53262;BME280;39658;51.090;-1.786;2023-05-21T07:09:12;102665.75;;;12.10;100.00
53262;BME280;39658;51.090;-1.786;2023-05-21T07:11:39;102662.59;;;12.22;100.00
53262;BME280;39658;51.090;-1.786;2023-05-21T07:14:07;102656.06;;;12.31;100.00
53262;BME280;39658;51.090;-1.786;2023-05-21T07:16:34;102656.56;;;12.39;100.00
53262;BME280;39658;51.090;-1.786;2023-05-21T07:19:01;102651.41;;;12.56;100.00
53262;BME280;39658;51.090;-1.786;2023-05-21T07:21:28;102643.47;;;12.77;100.00
53262;BME280;39658;51.090;-1.786;2023-05-21T07:23:56;102634.81;;;12.92;100.00
53262;BME280;39658;51.090;-1.786;2023-05-21T07:26:23;102617.66;;;13.01;100.00
53262;BME280;39658;51.090;-1.786;2023-05-21T07:28:50;102610.13;;;13.11;100.00
53262;BME280;39658;51.090;-1.786;2023-05-21T07:31:17;102591.91;;;13.24;100.00
53262;BME280;39658;51.090;-1.786;2023-05-21T07:33:44;102574.66;;;13.34;100.00
53262;BME280;39658;51.090;-1.786;2023-05-21T07:36:11;102572.06;;;13.52;100.00
53262;BME280;39658;51.090;-1.786;2023-05-21T07:38:37;102551.81;;;13.68;100.00
53262;BME280;39658;51.090;-1.786;2023-05-21T07:41:06;102548.00;;;13.91;100.00
53262;BME280;39658;51.090;-1.786;2023-05-21T07:43:33;102538.16;;;14.11;100.00
53262;BME280;39658;51.090;-1.786;2023-05-21T07:45:59;102516.66;;;14.33;100.00
53262;BME280;39658;51.090;-1.786;2023-05-21T07:48:26;102492.81;;;14.49;100.00
53262;BME280;39658;51.090;-1.786;2023-05-21T07:50:53;102429.53;;;14.57;100.00
53262;BME280;39658;51.090;-1.786;2023-05-21T07:53:20;102420.47;;;14.77;100.00
53262;BME280;39658;51.090;-1.786;2023-05-21T07:55:47;102361.78;;;14.82;100.00
53262;BME280;39658;51.090;-1.786;2023-05-21T07:58:16;102375.63;;;15.03;100.00
53262;BME280;39658;51.090;-1.786;2023-05-21T08:00:45;102355.88;;;15.23;100.00
53262;BME280;39658;51.090;-1.786;2023-05-21T08:03:13;102337.19;;;15.39;100.00
53262;BME280;39658;51.090;-1.786;2023-05-21T08:05:41;102338.63;;;15.59;100.00
53262;BME280;39658;51.090;-1.786;2023-05-21T08:08:09;102293.59;;;15.70;100.00
53262;BME280;39658;51.090;-1.786;2023-05-21T08:10:37;102269.28;;;15.76;100.00
53262;BME280;39658;51.090;-1.786;2023-05-21T08:13:04;102246.13;;;15.93;100.00
53262;BME280;39658;51.090;-1.786;2023-05-21T08:15:32;102161.56;;;15.98;100.00
53262;BME280;39658;51.090;-1.786;2023-05-21T08:17:59;102157.97;;;16.12;100.00
53262;BME280;39658;51.090;-1.786;2023-05-21T08:20:26;102108.25;;;16.12;100.00
53262;BME280;39658;51.090;-1.786;2023-05-21T08:22:53;102116.94;;;16.29;100.00
53262;BME280;39658;51.090;-1.786;2023-05-21T08:25:20;102131.53;;;16.49;100.00
53262;BME280;39658;51.090;-1.786;2023-05-21T08:27:47;102077.66;;;16.45;100.00
53262;BME280;39658;51.090;-1.786;2023-05-21T08:30:13;102086.91;;;16.52;100.00
53262;BME280;39658;51.090;-1.786;2023-05-21T08:32:42;102052.06;;;16.68;100.00
53262;BME280;39658;51.090;-1.786;2023-05-21T08:35:09;102122.38;;;16.92;100.00
53262;BME280;39658;51.090;-1.786;2023-05-21T08:37:35;102020.91;;;17.08;100.00
53262;BME280;39658;51.090;-1.786;2023-05-21T08:40:03;102005.53;;;17.11;100.00
53262;BME280;39658;51.090;-1.786;2023-05-21T08:42:35;102054.44;;;17.23;100.00
53262;BME280;39658;51.090;-1.786;2023-05-21T08:45:05;101994.03;;;17.35;100.00
53262;BME280;39658;51.090;-1.786;2023-05-21T08:47:34;101971.66;;;17.49;100.00
53262;BME280;39658;51.090;-1.786;2023-05-21T08:50:03;101938.25;;;17.56;100.00
53262;BME280;39658;51.090;-1.786;2023-05-21T08:52:31;101817.63;;;17.64;100.00
53262;BME280;39658;51.090;-1.786;2023-05-21T08:54:58;101599.63;;;17.77;100.00
53262;BME280;39658;51.090;-1.786;2023-05-21T08:57:26;101530.59;;;17.95;100.00
53262;BME280;39658;51.090;-1.786;2023-05-21T08:59:53;101376.94;;;18.23;100.00
53262;BME280;39658;51.090;-1.786;2023-05-21T09:02:20;101221.56;;;18.00;100.00
53262;BME280;39658;51.090;-1.786;2023-05-21T09:04:50;100716.22;;;18.03;100.00
53262;BME280;39658;51.090;-1.786;2023-05-21T09:07:24;100891.22;;;18.23;100.00
53262;BME280;39658;51.090;-1.786;2023-05-21T09:09:54;101127.44;;;18.57;100.00
53262;BME280;39658;51.090;-1.786;2023-05-21T09:12:23;101269.66;;;18.69;100.00
53262;BME280;39658;51.090;-1.786;2023-05-21T09:14:50;101312.66;;;18.56;100.00
53262;BME280;39658;51.090;-1.786;2023-05-21T09:17:17;101298.34;;;18.76;100.00
53262;BME280;39658;51.090;-1.786;2023-05-21T09:20:04;101328.56;;;19.06;100.00
53262;BME280;39658;51.090;-1.786;2023-05-21T09:22:35;101336.47;;;19.17;100.00
53262;BME280;39658;51.090;-1.786;2023-05-21T09:25:07;101333.41;;;19.60;100.00
53262;BME280;39658;51.090;-1.786;2023-05-21T09:27:34;101355.16;;;18.78;100.00
53262;BME280;39658;51.090;-1.786;2023-05-21T09:30:02;101360.63;;;19.35;100.00
53262;BME280;39658;51.090;-1.786;2023-05-21T09:32:29;101371.34;;;19.16;100.00
53262;BME280;39658;51.090;-1.786;2023-05-21T09:34:55;101380.63;;;19.22;100.00
53262;BME280;39658;51.090;-1.786;2023-05-21T09:37:23;101378.38;;;19.27;100.00
53262;BME280;39658;51.090;-1.786;2023-05-21T09:39:51;101374.53;;;19.59;100.00
53262;BME280;39658;51.090;-1.786;2023-05-21T09:42:19;101388.00;;;19.86;100.00
53262;BME280;39658;51.090;-1.786;2023-05-21T09:44:47;101388.06;;;20.04;100.00
53262;BME280;39658;51.090;-1.786;2023-05-21T09:47:18;101399.13;;;20.19;100.00
53262;BME280;39658;51.090;-1.786;2023-05-21T09:49:45;101400.59;;;20.14;100.00
53262;BME280;39658;51.090;-1.786;2023-05-21T09:52:12;101412.78;;;20.26;100.00
53262;BME280;39658;51.090;-1.786;2023-05-21T09:54:39;101418.53;;;20.31;100.00
53262;BME280;39658;51.090;-1.786;2023-05-21T09:57:07;101409.47;;;20.42;100.00
53262;BME280;39658;51.090;-1.786;2023-05-21T09:59:35;101405.63;;;20.44;100.00
53262;BME280;39658;51.090;-1.786;2023-05-21T10:02:02;101410.44;;;20.41;100.00
53262;BME280;39658;51.090;-1.786;2023-05-21T10:04:29;101410.34;;;20.33;100.00
53262;BME280;39658;51.090;-1.786;2023-05-21T10:06:58;101405.88;;;20.51;100.00
53262;BME280;39658;51.090;-1.786;2023-05-21T10:09:27;101407.78;;;20.69;100.00
53262;BME280;39658;51.090;-1.786;2023-05-21T10:11:55;101391.78;;;20.95;100.00
53262;BME280;39658;51.090;-1.786;2023-05-21T10:14:24;101397.44;;;21.10;100.00
53262;BME280;39658;51.090;-1.786;2023-05-21T10:16:53;101404.50;;;20.75;100.00
53262;BME280;39658;51.090;-1.786;2023-05-21T10:19:21;101398.75;;;21.06;100.00
53262;BME280;39658;51.090;-1.786;2023-05-21T10:21:51;101415.72;;;20.51;100.00
53262;BME280;39658;51.090;-1.786;2023-05-21T10:24:18;101411.25;;;20.51;100.00
53262;BME280;39658;51.090;-1.786;2023-05-21T10:26:46;101390.88;;;21.04;100.00
53262;BME280;39658;51.090;-1.786;2023-05-21T10:29:14;101399.81;;;21.13;100.00
53262;BME280;39658;51.090;-1.786;2023-05-21T10:31:43;101392.69;;;21.22;100.00
53262;BME280;39658;51.090;-1.786;2023-05-21T10:34:14;101407.72;;;21.32;100.00
53262;BME280;39658;51.090;-1.786;2023-05-21T10:36:42;101394.44;;;21.31;100.00
53262;BME280;39658;51.090;-1.786;2023-05-21T10:39:11;101388.66;;;21.62;100.00
53262;BME280;39658;51.090;-1.786;2023-05-21T10:41:45;101390.56;;;21.69;100.00
53262;BME280;39658;51.090;-1.786;2023-05-21T10:44:20;101388.97;;;21.85;100.00
53262;BME280;39658;51.090;-1.786;2023-05-21T10:50:13;101406.66;;;21.69;100.00
53262;BME280;39658;51.090;-1.786;2023-05-21T10:52:58;101409.06;;;21.81;95.75
53262;BME280;39658;51.090;-1.786;2023-05-21T10:55:37;101399.28;;;21.98;100.00
53262;BME280;39658;51.090;-1.786;2023-05-21T10:58:33;101401.91;;;22.16;100.00
53262;BME280;39658;51.090;-1.786;2023-05-21T11:01:02;101398.09;;;22.27;100.00
53262;BME280;39658;51.090;-1.786;2023-05-21T11:03:32;101386.97;;;20.98;100.00
53262;BME280;39658;51.090;-1.786;2023-05-21T11:06:01;101379.53;;;20.92;100.00
53262;BME280;39658;51.090;-1.786;2023-05-21T11:08:30;101379.31;;;21.04;100.00
53262;BME280;39658;51.090;-1.786;2023-05-21T11:11:00;101386.03;;;20.72;100.00
53262;BME280;39658;51.090;-1.786;2023-05-21T11:13:28;101386.66;;;20.66;100.00
53262;BME280;39658;51.090;-1.786;2023-05-21T11:16:13;101382.16;;;20.56;100.00
53262;BME280;39658;51.090;-1.786;2023-05-21T11:19:01;101374.66;;;20.70;100.00
53262;BME280;39658;51.090;-1.786;2023-05-21T11:21:29;101348.44;;;21.44;100.00
53262;BME280;39658;51.090;-1.786;2023-05-21T11:24:04;101365.94;;;21.74;100.00
53262;BME280;39658;51.090;-1.786;2023-05-21T11:29:19;101366.78;;;22.44;100.00
53262;BME280;39658;51.090;-1.786;2023-05-21T11:31:47;101370.66;;;22.57;100.00
53262;BME280;39658;51.090;-1.786;2023-05-21T11:34:18;101365.47;;;22.56;100.00
53262;BME280;39658;51.090;-1.786;2023-05-21T11:36:48;101374.06;;;22.25;93.16
53262;BME280;39658;51.090;-1.786;2023-05-21T11:39:16;101375.84;;;22.51;95.75
53262;BME280;39658;51.090;-1.786;2023-05-21T11:41:55;101382.44;;;22.73;93.02
53262;BME280;39658;51.090;-1.786;2023-05-21T11:44:39;101373.22;;;21.90;100.00
53262;BME280;39658;51.090;-1.786;2023-05-21T11:47:07;101374.03;;;22.17;100.00
53262;BME280;39658;51.090;-1.786;2023-05-21T11:49:36;101380.91;;;21.14;99.52
53262;BME280;39658;51.090;-1.786;2023-05-21T11:52:04;101366.41;;;22.04;100.00
53262;BME280;39658;51.090;-1.786;2023-05-21T11:54:32;101371.50;;;22.58;96.13
53262;BME280;39658;51.090;-1.786;2023-05-21T11:57:01;101366.56;;;22.02;93.10
53262;BME280;39658;51.090;-1.786;2023-05-21T11:59:28;101361.56;;;21.73;100.00
53262;BME280;39658;51.090;-1.786;2023-05-21T12:01:55;101365.97;;;21.82;100.00
53262;BME280;39658;51.090;-1.786;2023-05-21T12:04:23;101361.94;;;22.13;95.88
53262;BME280;39658;51.090;-1.786;2023-05-21T12:06:51;101362.00;;;21.95;98.18
53262;BME280;39658;51.090;-1.786;2023-05-21T12:09:18;101371.66;;;21.79;91.45
53262;BME280;39658;51.090;-1.786;2023-05-21T12:11:45;101356.06;;;22.60;97.58
53262;BME280;39658;51.090;-1.786;2023-05-21T12:14:12;101356.53;;;22.55;94.32
53262;BME280;39658;51.090;-1.786;2023-05-21T12:16:40;101358.41;;;22.55;93.40
53262;BME280;39658;51.090;-1.786;2023-05-21T12:19:06;101358.56;;;22.45;91.97
53262;BME280;39658;51.090;-1.786;2023-05-21T12:21:34;101356.09;;;22.76;97.26
53262;BME280;39658;51.090;-1.786;2023-05-21T12:24:02;101351.59;;;23.10;95.19
53262;BME280;39658;51.090;-1.786;2023-05-21T12:26:29;101344.69;;;23.16;94.33
53262;BME280;39658;51.090;-1.786;2023-05-21T12:29:00;101345.00;;;23.45;95.75
53262;BME280;39658;51.090;-1.786;2023-05-21T12:31:29;101348.63;;;22.46;96.39
53262;BME280;39658;51.090;-1.786;2023-05-21T12:33:57;101335.91;;;22.81;98.80
53262;BME280;39658;51.090;-1.786;2023-05-21T12:36:26;101339.66;;;23.29;92.42
53262;BME280;39658;51.090;-1.786;2023-05-21T12:38:53;101342.56;;;23.75;81.79
53262;BME280;39658;51.090;-1.786;2023-05-21T12:41:22;101343.47;;;22.85;82.79
53262;BME280;39658;51.090;-1.786;2023-05-21T12:43:49;101347.00;;;22.18;84.18
53262;BME280;39658;51.090;-1.786;2023-05-21T12:46:16;101353.34;;;20.86;99.67